createdAt,value
2018-07-10T00:01:27.823Z,19.09
2018-07-10T00:04:07.142Z,19.11
2018-07-10T00:08:49.815Z,19.15
2018-07-10T00:11:28.709Z,19.06
2018-07-10T00:13:57.687Z,19.09
2018-07-10T00:16:26.999Z,19.09
2018-07-10T00:18:56.542Z,19.03
2018-07-10T00:21:25.730Z,19.01
2018-07-10T00:23:54.915Z,19.03
2018-07-10T00:26:24.180Z,19.00
2018-07-10T00:28:53.676Z,19.00
2018-07-10T00:31:23.033Z,18.90
2018-07-10T00:33:52.276Z,18.97
2018-07-10T00:36:21.622Z,19.09
2018-07-10T00:38:58.767Z,19.12
2018-07-10T00:41:30.856Z,19.01
2018-07-10T00:44:00.613Z,18.99
2018-07-10T00:46:30.968Z,19.07
2018-07-10T00:49:00.166Z,18.99
2018-07-10T00:51:29.840Z,18.97
2018-07-10T00:53:59.174Z,19.04
2018-07-10T00:56:28.126Z,19.03
2018-07-10T00:58:57.555Z,19.05
2018-07-10T01:01:27.212Z,19.12
2018-07-10T01:03:56.263Z,19.13
2018-07-10T01:06:25.295Z,19.06
2018-07-10T01:08:54.554Z,18.98
2018-07-10T01:11:23.840Z,18.90
2018-07-10T01:13:53.095Z,18.94
2018-07-10T01:16:27.544Z,19.08
2018-07-10T01:18:59.304Z,19.09
2018-07-10T01:21:28.474Z,19.11
2018-07-10T01:23:59.878Z,19.06
2018-07-10T01:26:35.423Z,19.00
2018-07-10T01:29:10.918Z,18.96
2018-07-10T01:31:42.073Z,18.91
2018-07-10T01:34:11.266Z,18.78
2018-07-10T01:36:40.203Z,18.52
2018-07-10T01:39:09.255Z,18.62
2018-07-10T01:41:38.501Z,18.82
2018-07-10T01:44:07.662Z,18.89
2018-07-10T01:46:36.635Z,18.89
2018-07-10T01:49:05.879Z,18.86
2018-07-10T01:51:35.663Z,18.87
2018-07-10T01:54:04.953Z,18.76
2018-07-10T01:56:34.242Z,18.73
2018-07-10T01:59:03.375Z,18.81
2018-07-10T02:01:32.602Z,18.82
2018-07-10T02:04:02.053Z,18.91
2018-07-10T02:06:31.465Z,18.99
2018-07-10T02:09:00.424Z,18.93
2018-07-10T02:11:29.771Z,18.82
2018-07-10T02:13:58.952Z,18.73
2018-07-10T02:16:28.102Z,18.67
2018-07-10T02:18:57.341Z,18.65
2018-07-10T02:21:26.337Z,18.61
2018-07-10T05:35:56.586Z,20.70
2018-07-10T05:38:31.250Z,20.72
2018-07-10T05:41:01.058Z,20.64
2018-07-10T05:43:30.430Z,20.71
2018-07-10T05:45:59.558Z,20.73
2018-07-10T05:48:29.915Z,20.71
2018-07-10T05:50:59.062Z,20.67
2018-07-10T05:53:28.198Z,20.67
2018-07-10T05:55:57.422Z,20.73
2018-07-10T05:58:26.700Z,20.82
2018-07-10T06:00:55.957Z,20.94
2018-07-10T06:03:25.070Z,21.03
2018-07-10T06:05:54.264Z,21.12
2018-07-10T06:08:23.240Z,21.15
2018-07-10T06:10:52.502Z,21.04
2018-07-10T06:13:21.758Z,21.02
2018-07-10T06:15:51.060Z,21.07
2018-07-10T06:18:20.031Z,21.13
2018-07-10T06:20:49.225Z,21.17
2018-07-10T06:23:21.038Z,21.21
2018-07-10T06:25:50.719Z,21.21
2018-07-10T06:28:28.452Z,21.27
2018-07-10T06:31:02.111Z,21.36
2018-07-10T06:33:31.355Z,21.43
2018-07-10T06:36:18.651Z,21.50
2018-07-10T06:38:49.301Z,21.62
2018-07-10T06:41:18.367Z,21.59
2018-07-10T06:43:56.648Z,21.63
2018-07-10T06:46:44.585Z,21.70
2018-07-10T06:49:27.321Z,21.73
2018-07-10T06:52:06.311Z,21.80
2018-07-10T06:54:49.321Z,21.90
2018-07-10T06:57:18.906Z,21.87
2018-07-10T06:59:48.219Z,21.90
2018-07-10T07:02:17.367Z,21.97
2018-07-10T07:04:46.343Z,22.02
2018-07-10T07:07:15.801Z,22.06
2018-07-10T07:09:44.830Z,22.12
2018-07-10T07:12:14.503Z,22.22
2018-07-10T07:14:43.728Z,22.32
2018-07-10T07:17:12.984Z,22.42
2018-07-10T07:19:42.357Z,22.50
2018-07-10T07:22:11.381Z,22.50
2018-07-10T07:24:40.683Z,22.54
2018-07-10T07:27:09.862Z,22.60
2018-07-10T07:29:38.886Z,22.67
2018-07-10T07:32:08.171Z,22.72
2018-07-10T07:34:37.446Z,22.78
2018-07-10T07:37:06.878Z,22.87
2018-07-10T07:39:36.143Z,22.93
2018-07-10T07:42:05.213Z,22.99
2018-07-10T07:44:34.429Z,23.04
2018-07-10T07:47:03.667Z,23.11
2018-07-10T07:49:33.056Z,23.21
2018-07-10T07:52:02.239Z,23.25
2018-07-10T07:54:31.516Z,23.31
2018-07-10T07:57:00.411Z,23.35
2018-07-10T07:59:29.847Z,23.23
2018-07-10T08:01:59.146Z,23.28
2018-07-10T08:04:28.400Z,23.49
2018-07-10T08:06:57.796Z,23.77
2018-07-10T08:09:26.822Z,23.90
2018-07-10T08:11:56.073Z,23.93
2018-07-10T08:14:25.286Z,23.96
2018-07-10T08:16:54.918Z,23.97
2018-07-10T08:19:24.254Z,23.98
2018-07-10T08:21:53.582Z,24.04
2018-07-10T08:24:24.977Z,24.07
2018-07-10T08:26:57.189Z,24.03
2018-07-10T08:29:26.798Z,23.94
2018-07-10T08:31:56.276Z,23.77
2018-07-10T08:34:27.047Z,23.77
2018-07-10T08:36:56.166Z,23.86
2018-07-10T08:39:25.614Z,23.99
2018-07-10T08:41:54.923Z,24.16
2018-07-10T08:44:24.363Z,24.35
2018-07-10T08:46:57.130Z,24.49
2018-07-10T08:49:29.448Z,24.67
2018-07-10T08:51:58.537Z,24.88
2018-07-10T08:54:27.627Z,25.07
2018-07-10T08:56:56.870Z,25.17
2018-07-10T08:59:26.126Z,25.13
2018-07-10T09:01:55.360Z,24.98
2018-07-10T09:04:24.650Z,25.01
2018-07-10T09:06:53.878Z,25.18
2018-07-10T09:09:23.288Z,25.37
2018-07-10T09:11:52.582Z,25.46
2018-07-10T09:14:21.923Z,25.52
2018-07-10T09:16:51.572Z,25.51
2018-07-10T09:19:26.263Z,25.55
2018-07-10T09:21:58.595Z,25.54
2018-07-10T09:24:27.933Z,25.53
2018-07-10T09:26:57.191Z,25.50
2018-07-10T09:29:26.319Z,25.42
2018-07-10T09:31:56.096Z,25.38
2018-07-10T09:34:25.215Z,25.27
2018-07-10T09:36:54.454Z,25.23
2018-07-10T09:39:23.826Z,25.23
2018-07-10T09:41:53.120Z,25.17
2018-07-10T09:44:22.194Z,25.13
2018-07-10T09:46:51.553Z,25.10
2018-07-10T09:49:20.654Z,25.11
2018-07-10T09:51:50.016Z,25.14
2018-07-10T09:54:19.245Z,25.12
2018-07-10T09:56:48.544Z,25.20
2018-07-10T09:59:17.768Z,25.26
2018-07-10T10:01:47.237Z,25.32
2018-07-10T10:04:16.612Z,25.33
2018-07-10T10:06:45.839Z,25.30
2018-07-10T10:09:15.222Z,25.25
2018-07-10T10:11:44.294Z,25.18
2018-07-10T10:14:13.757Z,25.28
2018-07-10T10:16:43.075Z,25.43
2018-07-10T10:19:12.215Z,25.63
2018-07-10T10:21:41.476Z,25.91
2018-07-10T10:24:10.609Z,26.44
2018-07-10T10:26:39.980Z,28.43
2018-07-10T10:29:09.368Z,30.63
2018-07-10T10:31:38.664Z,32.34
2018-07-10T10:34:07.742Z,33.88
2018-07-10T10:36:36.823Z,35.41
2018-07-10T10:39:06.284Z,36.58
2018-07-10T10:41:35.377Z,36.23
2018-07-10T10:44:04.660Z,36.51
2018-07-10T10:46:34.211Z,35.66
2018-07-10T10:49:03.548Z,35.19
2018-07-10T10:51:32.887Z,35.44
2018-07-10T10:54:02.482Z,35.96
2018-07-10T10:56:31.790Z,35.95
2018-07-10T10:59:01.204Z,36.09
2018-07-10T11:01:30.755Z,36.23
2018-07-10T11:04:00.052Z,36.47
2018-07-10T11:06:30.463Z,37.23
2018-07-10T11:09:00.276Z,37.49
2018-07-10T11:11:31.303Z,37.70
2018-07-10T11:14:02.033Z,38.02
2018-07-10T11:16:31.126Z,37.92
2018-07-10T11:19:25.543Z,37.96
2018-07-10T11:22:04.450Z,37.49
2018-07-10T11:24:48.664Z,37.14
2018-07-10T11:27:28.759Z,37.28
2018-07-10T11:29:58.050Z,37.49
2018-07-10T11:32:27.285Z,38.15
2018-07-10T11:34:56.485Z,37.03
2018-07-10T11:37:25.833Z,35.24
2018-07-10T11:39:55.174Z,32.71
2018-07-10T11:42:24.650Z,31.96
2018-07-10T11:44:54.101Z,31.24
2018-07-10T11:47:23.380Z,30.58
2018-07-10T11:49:52.705Z,29.91
2018-07-10T11:52:21.832Z,29.58
2018-07-10T11:54:51.135Z,30.58
2018-07-10T11:57:20.743Z,32.28
2018-07-10T11:59:50.000Z,34.26
2018-07-10T12:02:19.307Z,35.74
2018-07-10T12:04:48.549Z,36.96
2018-07-10T12:07:17.685Z,38.13
2018-07-10T12:09:57.579Z,38.42
2018-07-10T12:12:26.814Z,39.07
2018-07-10T12:14:56.119Z,39.54
2018-07-10T12:17:25.334Z,40.16
2018-07-10T12:19:54.602Z,40.50
2018-07-10T12:22:23.830Z,41.03
2018-07-10T12:24:53.010Z,41.38
2018-07-10T12:27:22.239Z,41.70
2018-07-10T12:29:51.498Z,41.59
2018-07-10T12:32:20.703Z,41.56
2018-07-10T12:34:49.884Z,41.80
2018-07-10T12:37:19.080Z,41.95
2018-07-10T12:39:48.072Z,42.35
2018-07-10T12:42:17.254Z,42.54
2018-07-10T12:44:46.390Z,42.16
2018-07-10T12:47:15.629Z,41.33
2018-07-10T12:49:44.835Z,40.68
2018-07-10T12:52:13.980Z,40.21
2018-07-10T12:54:42.976Z,40.79
2018-07-10T12:57:12.983Z,39.70
2018-07-10T12:59:42.409Z,38.33
2018-07-10T13:02:11.807Z,36.86
2018-07-10T13:04:41.072Z,35.58
2018-07-10T13:07:10.168Z,35.08
2018-07-10T13:09:39.398Z,34.66
2018-07-10T13:12:08.520Z,34.04
2018-07-10T13:14:37.378Z,33.62
2018-07-10T13:17:06.643Z,33.35
2018-07-10T13:19:37.135Z,32.77
2018-07-10T13:22:06.640Z,32.10
2018-07-10T13:24:35.763Z,31.73
2018-07-10T13:27:05.165Z,31.09
2018-07-10T13:29:34.468Z,30.39
2018-07-10T13:32:03.737Z,29.91
2018-07-10T13:34:33.091Z,29.69
2018-07-10T13:37:02.333Z,29.61
2018-07-10T13:39:31.666Z,29.68
2018-07-10T13:42:00.842Z,29.83
2018-07-10T13:44:30.133Z,30.04
2018-07-10T13:46:59.095Z,30.24
2018-07-10T13:49:28.319Z,30.16
2018-07-10T13:51:57.717Z,29.78
2018-07-10T13:54:27.015Z,29.69
2018-07-10T13:56:56.192Z,30.09
2018-07-10T13:59:27.248Z,31.38
2018-07-10T14:01:56.672Z,32.84
2018-07-10T14:04:25.494Z,33.85
2018-07-10T14:06:54.543Z,33.67
2018-07-10T14:09:23.730Z,34.05
2018-07-10T14:11:53.055Z,34.65
2018-07-10T14:14:22.407Z,34.40
2018-07-10T14:16:51.643Z,33.47
2018-07-10T14:19:20.929Z,32.91
2018-07-10T14:21:50.275Z,32.69
2018-07-10T14:24:19.349Z,32.58
2018-07-10T14:26:48.630Z,32.32
2018-07-10T14:29:17.900Z,32.04
2018-07-10T14:31:47.014Z,31.64
2018-07-10T14:34:16.043Z,31.13
2018-07-10T14:36:45.244Z,30.77
2018-07-10T14:39:14.542Z,30.57
2018-07-10T14:41:43.814Z,30.42
2018-07-10T14:44:13.623Z,30.26
2018-07-10T14:46:42.821Z,30.21
2018-07-10T14:49:12.172Z,30.09
2018-07-10T14:51:44.339Z,29.99
2018-07-10T14:54:13.585Z,29.81
2018-07-10T14:56:43.050Z,29.73
2018-07-10T14:59:12.703Z,29.68
2018-07-10T15:01:41.843Z,29.61
2018-07-10T15:04:11.152Z,29.47
2018-07-10T15:06:40.417Z,29.28
2018-07-10T15:09:10.242Z,29.14
2018-07-10T15:11:39.546Z,29.09
2018-07-10T15:14:10.085Z,29.14
2018-07-10T15:16:44.281Z,29.15
2018-07-10T15:19:13.218Z,29.19
2018-07-10T15:21:42.533Z,29.26
2018-07-10T15:24:11.715Z,29.29
2018-07-10T15:26:40.781Z,29.38
2018-07-10T15:29:10.122Z,29.31
2018-07-10T15:31:39.410Z,29.26
2018-07-10T15:34:08.714Z,29.19
2018-07-10T15:36:37.650Z,29.07
2018-07-10T15:39:06.829Z,28.96
2018-07-10T15:41:36.004Z,28.85
2018-07-10T15:44:05.180Z,28.73
2018-07-10T15:46:34.122Z,28.56
2018-07-10T15:49:03.212Z,28.42
2018-07-10T15:51:32.467Z,28.20
2018-07-10T15:54:01.675Z,27.99
2018-07-10T15:56:30.922Z,27.87
2018-07-10T15:59:00.180Z,27.81
2018-07-10T16:01:29.523Z,27.75
2018-07-10T16:03:58.766Z,27.64
2018-07-10T16:06:30.568Z,27.55
2018-07-10T16:09:30.846Z,27.50
2018-07-10T16:12:03.419Z,27.45
2018-07-10T16:14:33.068Z,27.44
2018-07-10T16:17:06.891Z,27.38
2018-07-10T16:19:44.933Z,27.28
2018-07-10T16:22:17.779Z,27.23
2018-07-10T16:24:50.658Z,27.19
2018-07-10T16:27:25.043Z,27.21
2018-07-10T16:29:54.207Z,27.20
2018-07-10T16:32:23.608Z,27.16
2018-07-10T16:34:53.032Z,27.11
2018-07-10T16:37:22.606Z,27.06
2018-07-10T16:39:51.748Z,27.05
2018-07-10T16:42:25.935Z,27.00
2018-07-10T16:44:55.021Z,26.93
2018-07-10T16:47:28.670Z,26.87
2018-07-10T16:50:01.912Z,26.68
2018-07-10T16:52:44.338Z,26.48
2018-07-10T16:55:13.662Z,26.29
2018-07-10T16:57:43.694Z,26.17
2018-07-10T17:00:12.949Z,26.10
2018-07-10T17:02:42.262Z,26.03
2018-07-10T17:05:11.453Z,25.90
2018-07-10T17:07:40.481Z,25.80
2018-07-10T17:10:09.714Z,25.52
2018-07-10T17:12:38.983Z,25.38
2018-07-10T17:15:08.649Z,25.23
2018-07-10T17:17:37.826Z,25.11
2018-07-10T17:20:11.447Z,25.02
2018-07-10T17:22:40.492Z,24.91
2018-07-10T17:25:10.125Z,24.79
2018-07-10T17:27:41.435Z,24.72
2018-07-10T17:30:10.691Z,24.65
2018-07-10T17:32:40.035Z,24.59
2018-07-10T17:35:09.340Z,24.53
2018-07-10T17:37:43.482Z,24.47
2018-07-10T17:40:12.702Z,24.43
2018-07-10T17:42:42.238Z,24.37
2018-07-10T17:45:12.779Z,24.31
2018-07-10T17:47:41.874Z,24.25
2018-07-10T17:50:11.165Z,24.17
2018-07-10T17:52:40.264Z,24.17
2018-07-10T17:55:09.555Z,24.12
2018-07-10T17:57:39.467Z,24.06
2018-07-10T18:00:08.728Z,23.98
2018-07-10T18:02:37.657Z,23.95
2018-07-10T18:05:07.005Z,23.87
2018-07-10T18:07:36.211Z,23.75
2018-07-10T18:10:05.496Z,23.73
2018-07-10T18:12:34.771Z,23.67
2018-07-10T18:15:03.599Z,23.61
2018-07-10T18:17:32.872Z,23.58
2018-07-10T18:20:02.587Z,23.58
2018-07-10T18:22:31.635Z,23.59
2018-07-10T18:25:00.876Z,23.60
2018-07-10T18:27:30.094Z,23.60
2018-07-10T18:29:59.038Z,23.59
2018-07-10T18:32:27.963Z,23.59
2018-07-10T18:34:57.021Z,23.57
2018-07-10T18:37:26.260Z,23.58
2018-07-10T18:39:55.557Z,23.55
2018-07-10T18:42:24.864Z,23.50
2018-07-10T18:44:53.763Z,23.49
2018-07-10T18:47:22.820Z,23.46
2018-07-10T18:49:54.035Z,23.45
2018-07-10T18:52:25.013Z,23.45
2018-07-10T18:54:54.006Z,23.44
2018-07-10T18:59:34.123Z,23.41
2018-07-10T19:02:11.430Z,23.27
2018-07-10T19:05:07.438Z,23.25
2018-07-10T19:07:39.661Z,23.25
2018-07-10T19:10:08.556Z,23.24
2018-07-10T19:12:38.146Z,23.24
2018-07-10T19:15:07.685Z,23.22
2018-07-10T19:17:37.260Z,23.21
2018-07-10T19:20:09.379Z,23.21
2018-07-10T19:22:54.352Z,23.23
2018-07-10T19:25:24.150Z,23.19
2018-07-10T19:27:55.754Z,23.19
2018-07-10T19:30:40.305Z,23.13
2018-07-10T19:33:09.442Z,23.07
2018-07-10T19:35:38.698Z,23.03
2018-07-10T19:38:07.899Z,22.95
2018-07-10T19:40:37.089Z,22.92
2018-07-10T19:43:06.435Z,22.90
2018-07-10T19:45:35.766Z,22.86
2018-07-10T19:48:05.604Z,22.88
2018-07-10T19:50:39.850Z,22.89
2018-07-10T19:53:09.125Z,22.89
2018-07-10T19:55:41.186Z,22.86
2018-07-10T19:58:30.413Z,22.86
2018-07-10T20:01:10.567Z,22.85
2018-07-10T20:04:46.871Z,22.78
2018-07-10T20:07:22.843Z,22.67
2018-07-10T20:09:56.537Z,22.66
2018-07-10T20:12:41.601Z,22.67
2018-07-10T20:17:20.755Z,22.64
2018-07-10T20:20:05.089Z,22.55
2018-07-10T20:25:13.346Z,22.57
2018-07-10T20:27:49.595Z,22.55
2018-07-10T20:31:34.670Z,22.50
2018-07-10T20:34:17.936Z,22.41
2018-07-10T20:36:52.927Z,22.36
2018-07-10T20:39:22.975Z,22.37
2018-07-10T20:41:52.233Z,22.37
2018-07-10T20:44:21.458Z,22.37
2018-07-10T20:46:55.243Z,22.35
2018-07-10T20:49:33.847Z,22.37
2018-07-10T20:52:05.900Z,22.37
2018-07-10T20:54:44.071Z,22.35
2018-07-10T20:57:23.562Z,22.41
2018-07-10T20:59:57.738Z,22.43
2018-07-10T21:03:39.366Z,22.43
2018-07-10T21:06:21.064Z,22.22
2018-07-10T21:09:13.026Z,22.19
2018-07-10T21:12:49.249Z,22.17
2018-07-10T21:15:22.902Z,22.09
2018-07-10T21:17:56.892Z,22.09
2018-07-10T21:20:31.414Z,22.10
2018-07-10T21:23:07.462Z,22.12
2018-07-10T21:27:53.236Z,22.12
2018-07-10T21:30:32.183Z,22.02
2018-07-10T21:33:06.944Z,22.03
2018-07-10T21:35:49.363Z,22.03
2018-07-10T21:38:28.519Z,22.01
2018-07-10T21:42:11.370Z,21.99
2018-07-10T21:44:51.051Z,21.89
2018-07-10T21:48:40.024Z,21.93
2018-07-10T21:51:09.294Z,21.91
2018-07-10T21:53:38.422Z,21.93
2018-07-10T21:56:07.680Z,21.92
2018-07-10T21:58:36.812Z,21.95
2018-07-10T22:01:44.504Z,21.93
2018-07-10T22:04:18.094Z,21.91
2018-07-10T22:06:53.191Z,21.96
2018-07-10T22:09:24.434Z,21.97
2018-07-10T22:11:53.845Z,21.98
2018-07-10T22:14:23.427Z,21.92
2018-07-10T22:16:52.364Z,21.87
2018-07-10T22:19:25.668Z,21.82
2018-07-10T22:21:55.959Z,21.78
2018-07-10T22:42:12.778Z,22.19
2018-07-10T22:44:48.301Z,22.03
2018-07-10T22:47:19.139Z,22.02
2018-07-10T22:49:49.919Z,21.96
2018-07-10T22:52:19.252Z,21.87
2018-07-10T22:54:48.550Z,21.83
2018-07-10T22:57:17.799Z,21.68
2018-07-10T22:59:46.830Z,21.69
2018-07-10T23:02:15.779Z,21.65
2018-07-10T23:04:44.671Z,21.66
2018-07-10T23:07:13.940Z,21.64
2018-07-10T23:09:42.891Z,21.61
2018-07-10T23:12:12.127Z,21.57
2018-07-10T23:14:41.090Z,21.56
2018-07-10T23:17:10.383Z,21.46
2018-07-10T23:19:39.703Z,21.44
2018-07-10T23:22:08.954Z,21.53
2018-07-10T23:24:38.130Z,21.51
2018-07-10T23:27:07.655Z,21.57
2018-07-10T23:29:37.748Z,21.54
2018-07-10T23:32:07.994Z,21.59
2018-07-10T23:34:36.967Z,21.55
2018-07-10T23:37:09.955Z,21.51
2018-07-10T23:39:44.653Z,21.56
2018-07-10T23:42:29.642Z,21.52
2018-07-10T23:45:02.960Z,21.51
2018-07-10T23:47:33.550Z,21.50
2018-07-10T23:50:34.837Z,21.52
2018-07-10T23:53:45.948Z,21.57
2018-07-10T23:56:15.454Z,21.53
2018-07-10T23:58:44.948Z,21.55
